createdAt,value
2024-02-18T00:02:22.094Z,27.97
2024-02-18T00:04:48.834Z,27.37
2024-02-18T00:07:15.499Z,37.20
2024-02-18T00:09:42.100Z,24.03
2024-02-18T00:12:08.690Z,28.60
2024-02-18T00:14:35.263Z,29.63
2024-02-18T00:17:02.260Z,26.60
2024-02-18T00:19:28.921Z,26.50
2024-02-18T00:21:55.534Z,23.13
2024-02-18T00:24:22.175Z,31.87
2024-02-18T00:26:58.643Z,24.80
2024-02-18T00:29:26.625Z,29.40
2024-02-18T00:31:53.974Z,29.47
2024-02-18T00:34:24.668Z,30.40
2024-02-18T00:36:52.464Z,22.70
2024-02-18T00:39:19.458Z,26.33
2024-02-18T00:41:45.992Z,28.50
2024-02-18T00:44:12.499Z,26.10
2024-02-18T00:46:45.445Z,28.80
2024-02-18T00:49:18.992Z,35.40
2024-02-18T00:51:46.574Z,28.03
2024-02-18T00:54:13.416Z,26.23
2024-02-18T00:56:40.035Z,24.60
2024-02-18T00:59:06.610Z,27.90
2024-02-18T01:01:33.310Z,28.07
2024-02-18T01:04:00.537Z,26.77
2024-02-18T01:06:27.195Z,29.60
2024-02-18T01:08:53.760Z,27.90
2024-02-18T01:11:20.260Z,30.50
2024-02-18T01:13:46.765Z,24.97
2024-02-18T01:16:13.558Z,33.43
2024-02-18T01:18:44.705Z,27.03
2024-02-18T01:21:12.176Z,27.70
2024-02-18T01:23:38.884Z,28.33
2024-02-18T01:26:06.073Z,24.37
2024-02-18T01:28:32.555Z,29.67
2024-02-18T01:30:59.211Z,33.93
2024-02-18T01:33:25.822Z,30.07
2024-02-18T01:35:52.353Z,25.70
2024-02-18T01:38:18.834Z,30.10
2024-02-18T01:40:45.456Z,29.00
2024-02-18T01:43:14.265Z,26.87
2024-02-18T01:45:42.016Z,26.40
2024-02-18T01:48:09.173Z,27.27
2024-02-18T01:50:36.150Z,26.97
2024-02-18T01:53:04.147Z,28.63
2024-02-18T01:55:33.123Z,31.50
2024-02-18T01:58:01.485Z,28.20
2024-02-18T02:00:28.704Z,30.63
2024-02-18T02:02:55.707Z,31.67
2024-02-18T02:05:22.527Z,30.10
2024-02-18T02:07:52.954Z,31.03
2024-02-18T02:10:20.121Z,30.40
2024-02-18T02:12:46.791Z,29.67
2024-02-18T02:15:13.825Z,30.30
2024-02-18T02:17:40.597Z,26.63
2024-02-18T02:20:11.955Z,30.57
2024-02-18T02:22:39.592Z,28.00
2024-02-18T02:25:09.971Z,27.90
2024-02-18T02:27:42.735Z,36.90
2024-02-18T02:30:09.692Z,28.07
2024-02-18T02:32:37.087Z,29.63
2024-02-18T02:35:04.667Z,30.77
2024-02-18T02:37:31.504Z,30.93
2024-02-18T02:39:58.265Z,32.17
2024-02-18T02:42:24.930Z,31.07
2024-02-18T02:44:51.739Z,26.50
2024-02-18T02:47:18.303Z,28.20
2024-02-18T02:49:44.927Z,27.50
2024-02-18T02:52:11.734Z,34.73
2024-02-18T02:54:38.374Z,31.70
2024-02-18T02:57:05.196Z,36.40
2024-02-18T02:59:31.716Z,28.60
2024-02-18T03:01:58.289Z,26.90
2024-02-18T03:04:25.097Z,25.83
2024-02-18T03:06:51.781Z,33.40
2024-02-18T03:09:18.505Z,34.30
2024-02-18T03:11:45.270Z,32.80
2024-02-18T03:14:11.784Z,35.93
2024-02-18T03:16:38.278Z,30.80
2024-02-18T03:19:05.342Z,31.77
2024-02-18T03:21:32.011Z,35.93
2024-02-18T03:23:58.654Z,28.63
2024-02-18T03:26:27.066Z,28.80
2024-02-18T03:28:54.062Z,29.23
2024-02-18T03:31:20.996Z,27.27
2024-02-18T03:33:48.056Z,24.57
2024-02-18T03:36:14.838Z,26.33
2024-02-18T03:38:41.431Z,28.17
2024-02-18T03:41:08.643Z,29.97
2024-02-18T03:43:35.748Z,31.83
2024-02-18T03:46:03.532Z,24.60
2024-02-18T03:48:30.523Z,25.80
2024-02-18T03:50:57.512Z,25.87
2024-02-18T03:53:24.184Z,24.37
2024-02-18T03:55:50.836Z,27.00
2024-02-18T03:58:17.553Z,29.53
2024-02-18T04:00:47.649Z,26.10
2024-02-18T04:03:15.095Z,28.87
2024-02-18T04:05:42.919Z,25.67
2024-02-18T04:08:09.965Z,31.47
2024-02-18T04:10:36.565Z,29.73
2024-02-18T04:13:03.378Z,28.73
2024-02-18T04:15:30.019Z,33.03
2024-02-18T04:17:56.719Z,30.83
2024-02-18T04:20:23.530Z,27.80
2024-02-18T04:22:50.114Z,26.00
2024-02-18T04:25:16.652Z,29.37
2024-02-18T04:27:43.374Z,29.80
2024-02-18T04:30:10.168Z,24.40
2024-02-18T04:32:36.770Z,24.93
2024-02-18T04:35:04.761Z,26.70
2024-02-18T04:37:31.541Z,28.60
2024-02-18T04:39:58.709Z,26.57
2024-02-18T04:42:25.576Z,32.07
2024-02-18T04:44:52.186Z,34.33
2024-02-18T04:47:18.802Z,26.53
2024-02-18T04:49:45.585Z,25.97
2024-02-18T04:52:12.257Z,30.37
2024-02-18T04:54:40.441Z,22.70
2024-02-18T04:57:07.664Z,36.93
2024-02-18T04:59:37.363Z,26.70
2024-02-18T05:02:04.422Z,30.63
2024-02-18T05:04:32.960Z,26.97
2024-02-18T05:07:01.164Z,29.77
2024-02-18T05:09:27.991Z,24.57
2024-02-18T05:11:55.511Z,26.67
2024-02-18T05:14:22.121Z,27.40
2024-02-18T05:16:49.200Z,26.60
2024-02-18T05:19:15.909Z,27.00
2024-02-18T05:21:43.432Z,22.73
2024-02-18T05:24:14.920Z,25.80
2024-02-18T05:26:41.472Z,24.40
2024-02-18T05:29:07.992Z,27.80
2024-02-18T05:31:36.136Z,27.70
2024-02-18T05:34:03.467Z,30.17
2024-02-18T05:36:30.588Z,24.27
2024-02-18T05:38:57.190Z,24.30
2024-02-18T05:41:23.750Z,24.13
2024-02-18T05:43:50.367Z,24.87
2024-02-18T05:46:17.107Z,23.03
2024-02-18T05:48:44.374Z,22.83
2024-02-18T05:51:10.949Z,24.27
2024-02-18T05:53:37.886Z,20.80
2024-02-18T05:56:04.752Z,23.70
2024-02-18T05:58:31.276Z,21.47
2024-02-18T06:00:58.021Z,18.40
2024-02-18T06:03:24.696Z,22.40
2024-02-18T06:05:52.076Z,27.63
2024-02-18T06:08:18.660Z,20.83
2024-02-18T06:10:45.301Z,22.60
2024-02-18T06:13:12.005Z,36.40
2024-02-18T06:15:38.723Z,27.33
2024-02-18T06:18:05.916Z,27.83
2024-02-18T06:20:32.630Z,27.30
2024-02-18T06:22:59.121Z,22.70
2024-02-18T06:25:25.665Z,30.53
2024-02-18T06:27:53.373Z,25.63
2024-02-18T06:30:20.101Z,24.00
2024-02-18T06:32:47.253Z,25.67
2024-02-18T06:35:13.963Z,25.27
2024-02-18T06:37:42.926Z,23.87
2024-02-18T06:40:11.222Z,28.77
2024-02-18T06:42:37.982Z,24.20
2024-02-18T06:45:05.155Z,28.90
2024-02-18T06:47:32.293Z,26.30
2024-02-18T06:49:59.223Z,23.57
2024-02-18T06:52:25.933Z,34.43
2024-02-18T06:54:52.565Z,27.13
2024-02-18T06:57:19.169Z,26.50
2024-02-18T06:59:45.702Z,25.83
2024-02-18T07:02:13.522Z,25.37
2024-02-18T07:04:40.197Z,29.60
2024-02-18T07:07:06.827Z,27.30
2024-02-18T07:09:33.505Z,27.70
2024-02-18T07:12:00.061Z,27.67
2024-02-18T07:14:26.579Z,25.30
2024-02-18T07:16:53.120Z,31.60
2024-02-18T07:19:19.744Z,21.80
2024-02-18T07:21:47.305Z,21.53
2024-02-18T07:24:13.955Z,20.00
2024-02-18T07:26:40.565Z,25.47
2024-02-18T07:29:07.105Z,21.57
2024-02-18T07:31:37.754Z,70.27
2024-02-18T07:34:07.813Z,24.77
2024-02-18T07:36:34.666Z,24.27
2024-02-18T07:39:01.584Z,43.27
2024-02-18T07:41:28.097Z,22.93
2024-02-18T07:43:54.765Z,36.50
2024-02-18T07:46:21.491Z,44.03
2024-02-18T07:48:48.214Z,27.07
2024-02-18T07:51:14.848Z,41.53
2024-02-18T07:53:41.320Z,24.20
2024-02-18T07:56:07.953Z,22.83
2024-02-18T07:58:34.813Z,32.53
2024-02-18T08:01:01.447Z,28.93
2024-02-18T08:03:28.078Z,32.43
2024-02-18T08:05:54.605Z,25.53
2024-02-18T08:08:21.129Z,28.23
2024-02-18T08:10:48.314Z,25.07
2024-02-18T08:13:15.083Z,33.23
2024-02-18T08:15:41.706Z,21.10
2024-02-18T08:18:09.781Z,21.50
2024-02-18T08:20:40.499Z,23.13
2024-02-18T08:23:08.164Z,30.63
2024-02-18T08:25:35.108Z,22.07
2024-02-18T08:28:02.080Z,30.67
2024-02-18T08:30:28.660Z,19.63
2024-02-18T08:32:55.464Z,22.10
2024-02-18T08:35:22.311Z,24.60
2024-02-18T08:37:51.814Z,42.37
2024-02-18T08:40:18.578Z,25.07
2024-02-18T08:42:45.701Z,24.83
2024-02-18T08:45:12.418Z,18.50
2024-02-18T08:47:39.103Z,25.67
2024-02-18T08:50:06.280Z,58.83
2024-02-18T08:52:32.883Z,19.33
2024-02-18T08:54:59.435Z,60.53
2024-02-18T08:57:26.089Z,27.30
2024-02-18T08:59:52.873Z,15.60
2024-02-18T09:02:20.125Z,16.27
2024-02-18T09:04:46.971Z,19.10
2024-02-18T09:07:13.704Z,25.87
2024-02-18T09:09:40.292Z,23.23
2024-02-18T09:12:07.323Z,24.47
2024-02-18T09:14:33.802Z,47.87
2024-02-18T09:17:00.307Z,28.90
2024-02-18T09:19:27.097Z,26.07
2024-02-18T09:21:53.896Z,21.27
2024-02-18T09:24:20.740Z,28.03
2024-02-18T09:26:47.246Z,32.90
2024-02-18T09:29:13.812Z,21.50
2024-02-18T09:31:40.458Z,24.10
2024-02-18T09:34:07.724Z,25.53
2024-02-18T09:36:34.663Z,25.07
2024-02-18T09:39:01.614Z,26.60
2024-02-18T09:41:28.941Z,27.70
2024-02-18T09:44:03.682Z,27.80
2024-02-18T09:46:35.497Z,27.43
2024-02-18T09:49:02.647Z,29.47
2024-02-18T09:51:29.713Z,25.97
2024-02-18T09:53:59.115Z,31.17
2024-02-18T09:56:25.714Z,28.03
2024-02-18T09:58:52.230Z,30.27
2024-02-18T10:01:22.118Z,28.93
2024-02-18T10:03:50.139Z,25.30
2024-02-18T10:06:16.912Z,26.80
2024-02-18T10:08:44.787Z,27.10
2024-02-18T10:11:11.558Z,29.37
2024-02-18T10:13:38.354Z,29.80
2024-02-18T10:16:05.457Z,26.30
2024-02-18T10:18:32.410Z,29.73
2024-02-18T10:20:59.175Z,30.70
2024-02-18T10:23:27.446Z,27.53
2024-02-18T10:25:54.101Z,32.40
2024-02-18T10:28:21.373Z,31.87
2024-02-18T10:30:48.197Z,27.93
2024-02-18T10:33:14.925Z,25.83
2024-02-18T10:35:44.171Z,29.33
2024-02-18T10:38:17.239Z,24.80
2024-02-18T10:40:49.213Z,30.00
2024-02-18T10:43:20.099Z,25.93
2024-02-18T10:45:47.691Z,20.97
2024-02-18T10:48:16.212Z,21.43
2024-02-18T10:50:46.976Z,25.00
2024-02-18T10:53:26.817Z,22.60
2024-02-18T10:56:01.699Z,12.90
2024-02-18T10:58:43.422Z,17.23
2024-02-18T11:01:13.864Z,13.00
2024-02-18T11:03:51.240Z,19.00
2024-02-18T11:06:19.078Z,12.03
2024-02-18T11:08:47.074Z,12.07
2024-02-18T11:11:14.295Z,10.63
2024-02-18T11:13:41.896Z,12.73
2024-02-18T11:16:15.576Z,7.97
2024-02-18T11:18:43.565Z,10.33
2024-02-18T11:21:14.186Z,12.07
2024-02-18T11:23:56.655Z,9.83
2024-02-18T11:26:23.722Z,8.93
2024-02-18T11:28:50.369Z,10.93
2024-02-18T11:31:27.295Z,10.50
2024-02-18T11:33:54.569Z,10.00
2024-02-18T11:36:24.346Z,11.17
2024-02-18T11:38:57.254Z,9.77
2024-02-18T11:41:32.299Z,9.33
2024-02-18T11:44:01.047Z,10.03
2024-02-18T11:46:29.298Z,10.13
2024-02-18T11:48:56.936Z,11.20
2024-02-18T11:51:24.758Z,9.77
2024-02-18T11:53:51.554Z,9.27
2024-02-18T11:56:18.239Z,7.60
2024-02-18T11:58:48.068Z,7.30
2024-02-18T12:01:20.556Z,11.20
2024-02-18T12:03:50.132Z,12.40
2024-02-18T12:06:16.746Z,7.20
2024-02-18T12:08:43.412Z,8.33
2024-02-18T12:11:10.286Z,6.47
2024-02-18T12:13:36.953Z,6.93
2024-02-18T12:16:05.548Z,8.33
2024-02-18T12:18:32.432Z,5.93
2024-02-18T12:20:59.213Z,6.80
2024-02-18T12:23:27.558Z,6.40
2024-02-18T12:25:55.073Z,8.60
2024-02-18T12:28:22.000Z,6.10
2024-02-18T12:30:50.109Z,7.30
2024-02-18T12:33:17.467Z,7.33
2024-02-18T12:35:44.671Z,6.97
2024-02-18T12:38:11.765Z,5.60
2024-02-18T12:40:41.115Z,4.00
2024-02-18T12:45:43.852Z,5.10
2024-02-18T12:48:15.941Z,4.70
2024-02-18T12:50:43.501Z,3.57
2024-02-18T12:53:10.598Z,6.63
2024-02-18T12:55:38.550Z,6.40
2024-02-18T12:58:05.634Z,4.37
2024-02-18T13:00:32.708Z,3.63
2024-02-18T13:03:01.954Z,3.30
2024-02-18T13:05:28.571Z,4.83
2024-02-18T13:07:57.661Z,4.73
2024-02-18T13:10:24.406Z,3.80
2024-02-18T13:12:51.362Z,3.60
2024-02-18T13:15:18.462Z,4.40
2024-02-18T13:17:49.756Z,1.90
2024-02-18T13:20:16.599Z,2.27
2024-02-18T13:22:44.030Z,4.00
2024-02-18T13:25:10.862Z,3.80
2024-02-18T13:27:37.544Z,4.87
2024-02-18T13:30:04.763Z,5.60
2024-02-18T13:32:31.513Z,2.50
2024-02-18T13:34:58.144Z,3.53
2024-02-18T13:37:24.767Z,2.60
2024-02-18T13:39:51.407Z,2.20
2024-02-18T13:42:21.647Z,3.50
2024-02-18T13:44:48.607Z,2.30
2024-02-18T13:47:15.434Z,3.40
2024-02-18T13:49:42.107Z,2.53
2024-02-18T13:52:09.224Z,3.30
2024-02-18T13:54:35.873Z,3.53
2024-02-18T13:57:02.558Z,2.13
2024-02-18T13:59:29.219Z,2.70
2024-02-18T14:01:55.822Z,2.33
2024-02-18T14:04:23.038Z,2.90
2024-02-18T14:06:49.622Z,3.93
2024-02-18T14:09:16.146Z,2.33
2024-02-18T14:11:43.462Z,4.10
2024-02-18T14:14:10.729Z,2.90
2024-02-18T14:16:37.609Z,4.00
2024-02-18T14:19:04.528Z,4.80
2024-02-18T14:21:31.761Z,3.73
2024-02-18T14:23:58.644Z,3.53
2024-02-18T14:26:25.494Z,3.23
2024-02-18T14:28:53.839Z,5.90
2024-02-18T14:31:20.556Z,3.57
2024-02-18T14:33:47.569Z,3.00
2024-02-18T14:36:16.105Z,2.83
2024-02-18T14:38:42.613Z,1.90
2024-02-18T14:41:10.477Z,2.63
2024-02-18T14:43:36.949Z,2.67
2024-02-18T14:46:03.512Z,3.73
2024-02-18T14:48:30.121Z,2.20
2024-02-18T14:50:56.651Z,3.87
2024-02-18T14:53:23.109Z,3.00
2024-02-18T14:55:49.741Z,2.40
2024-02-18T14:58:16.289Z,4.27
2024-02-18T15:00:42.890Z,2.13
2024-02-18T15:03:09.558Z,2.43
2024-02-18T15:05:36.165Z,2.93
2024-02-18T15:08:03.441Z,4.40
2024-02-18T15:10:31.240Z,3.60
2024-02-18T15:12:57.734Z,3.37
2024-02-18T15:15:24.356Z,3.80
2024-02-18T15:17:50.872Z,5.17
2024-02-18T15:20:17.539Z,2.50
2024-02-18T15:22:44.021Z,2.97
2024-02-18T15:25:12.164Z,2.27
2024-02-18T15:27:39.093Z,2.73
2024-02-18T15:30:06.559Z,2.40
2024-02-18T15:32:33.096Z,2.43
2024-02-18T15:34:59.735Z,4.17
2024-02-18T15:37:26.330Z,3.37
2024-02-18T15:39:52.873Z,3.33
2024-02-18T15:42:19.382Z,3.40
2024-02-18T15:44:45.862Z,2.80
2024-02-18T15:47:12.366Z,4.67
2024-02-18T15:49:39.983Z,4.03
2024-02-18T15:52:07.115Z,5.37
2024-02-18T15:54:33.649Z,2.93
2024-02-18T15:57:00.142Z,3.87
2024-02-18T15:59:27.155Z,5.43
2024-02-18T16:01:53.965Z,3.90
2024-02-18T16:04:20.980Z,4.53
2024-02-18T16:06:47.706Z,4.27
2024-02-18T16:09:14.203Z,3.00
2024-02-18T16:11:40.743Z,4.67
2024-02-18T16:14:07.224Z,3.30
2024-02-18T16:16:33.705Z,4.47
2024-02-18T16:19:00.403Z,4.80
2024-02-18T16:21:26.985Z,4.00
2024-02-18T16:23:59.533Z,4.33
2024-02-18T16:26:27.421Z,5.67
2024-02-18T16:28:54.038Z,4.80
2024-02-18T16:31:20.705Z,3.43
2024-02-18T16:33:47.278Z,5.20
2024-02-18T16:36:13.889Z,4.53
2024-02-18T16:38:42.404Z,4.37
2024-02-18T16:41:09.718Z,4.13
2024-02-18T16:43:36.233Z,4.53
2024-02-18T16:46:04.348Z,3.90
2024-02-18T16:48:36.130Z,5.90
2024-02-18T16:51:03.099Z,5.10
2024-02-18T16:53:29.643Z,4.93
2024-02-18T16:55:57.058Z,6.00
2024-02-18T16:58:23.859Z,4.03
2024-02-18T17:00:50.555Z,4.67
2024-02-18T17:03:17.209Z,6.00
2024-02-18T17:05:43.738Z,7.00
2024-02-18T17:08:12.112Z,4.80
2024-02-18T17:10:38.905Z,5.37
2024-02-18T17:13:09.087Z,5.50
2024-02-18T17:15:36.616Z,6.03
2024-02-18T17:18:03.561Z,4.90
2024-02-18T17:20:30.132Z,7.53
2024-02-18T17:22:56.751Z,5.67
2024-02-18T17:25:23.483Z,5.07
2024-02-18T17:27:50.077Z,7.70
2024-02-18T17:30:17.212Z,9.13
2024-02-18T17:32:44.383Z,7.50
2024-02-18T17:35:12.161Z,13.17
2024-02-18T17:37:38.788Z,14.53
2024-02-18T17:40:06.225Z,14.87
2024-02-18T17:42:33.003Z,17.63
2024-02-18T17:44:59.584Z,18.03
2024-02-18T17:47:29.105Z,13.53
2024-02-18T17:49:55.895Z,11.43
2024-02-18T17:52:22.615Z,13.73
2024-02-18T17:54:49.172Z,9.37
2024-02-18T17:57:15.750Z,8.70
2024-02-18T17:59:52.143Z,10.40
2024-02-18T18:02:18.736Z,10.50
2024-02-18T18:04:46.676Z,9.67
2024-02-18T18:07:13.547Z,6.10
2024-02-18T18:09:43.756Z,9.03
2024-02-18T18:12:11.450Z,6.77
2024-02-18T18:14:43.966Z,9.00
2024-02-18T18:17:10.642Z,7.93
2024-02-18T18:19:37.315Z,8.20
2024-02-18T18:22:03.995Z,8.03
2024-02-18T18:24:30.592Z,8.93
2024-02-18T18:26:57.073Z,8.83
2024-02-18T18:29:25.220Z,10.43
2024-02-18T18:31:52.923Z,11.67
2024-02-18T18:34:19.575Z,12.33
2024-02-18T18:36:46.250Z,10.93
2024-02-18T18:39:13.422Z,10.47
2024-02-18T18:41:41.014Z,13.77
2024-02-18T18:44:07.491Z,10.00
2024-02-18T18:46:35.324Z,10.27
2024-02-18T18:49:06.089Z,8.57
2024-02-18T18:51:33.333Z,10.00
2024-02-18T18:54:01.701Z,12.20
2024-02-18T18:56:28.491Z,12.03
2024-02-18T18:59:10.468Z,13.37
2024-02-18T19:02:36.838Z,11.73
2024-02-18T19:05:03.737Z,10.30
2024-02-18T19:07:33.553Z,13.93
2024-02-18T19:10:02.481Z,11.43
2024-02-18T19:12:30.428Z,13.30
2024-02-18T19:14:56.952Z,9.00
2024-02-18T19:17:25.851Z,14.80
2024-02-18T19:19:52.605Z,13.47
2024-02-18T19:22:20.511Z,13.10
2024-02-18T19:24:49.543Z,14.50
2024-02-18T19:27:18.652Z,12.60
2024-02-18T19:29:46.206Z,10.33
2024-02-18T19:32:18.308Z,12.57
2024-02-18T19:34:45.995Z,19.23
2024-02-18T19:37:12.607Z,11.37
2024-02-18T19:39:39.552Z,13.37
2024-02-18T19:42:08.935Z,12.27
2024-02-18T19:44:40.226Z,14.67
2024-02-18T19:47:06.761Z,10.90
2024-02-18T19:49:33.392Z,11.30
2024-02-18T19:52:00.914Z,11.67
2024-02-18T19:54:29.642Z,14.90
2024-02-18T19:57:01.707Z,11.33
2024-02-18T19:59:28.242Z,13.60
2024-02-18T20:01:58.416Z,13.43
2024-02-18T20:04:25.202Z,12.23
2024-02-18T20:06:54.993Z,13.90
2024-02-18T20:09:21.648Z,14.90
2024-02-18T20:11:51.530Z,11.10
2024-02-18T20:14:19.536Z,14.83
2024-02-18T20:16:46.203Z,12.33
2024-02-18T20:19:15.964Z,15.53
2024-02-18T20:21:43.546Z,12.13
2024-02-18T20:24:10.322Z,14.10
2024-02-18T20:26:37.674Z,16.03
2024-02-18T20:29:04.388Z,15.03
2024-02-18T20:31:30.990Z,15.43
2024-02-18T20:33:57.557Z,16.27
2024-02-18T20:36:24.168Z,19.93
2024-02-18T20:38:51.401Z,20.37
2024-02-18T20:41:17.956Z,15.63
2024-02-18T20:43:44.465Z,16.53
2024-02-18T20:46:12.822Z,19.67
2024-02-18T20:48:40.298Z,17.30
2024-02-18T20:51:06.924Z,13.17
2024-02-18T20:53:33.633Z,16.87
2024-02-18T20:56:00.356Z,20.10
2024-02-18T20:58:26.949Z,16.30
2024-02-18T21:00:53.513Z,18.80
2024-02-18T21:03:21.971Z,18.57
2024-02-18T21:05:49.150Z,17.63
2024-02-18T21:08:15.799Z,16.17
2024-02-18T21:10:42.496Z,16.43
2024-02-18T21:13:09.188Z,17.53
2024-02-18T21:15:35.777Z,15.60
2024-02-18T21:18:02.594Z,18.70
2024-02-18T21:20:29.714Z,19.87
2024-02-18T21:22:56.266Z,15.63
2024-02-18T21:25:24.004Z,17.47
2024-02-18T21:27:50.878Z,18.20
2024-02-18T21:30:17.492Z,18.03
2024-02-18T21:32:44.133Z,23.73
2024-02-18T21:35:12.493Z,18.67
2024-02-18T21:37:39.214Z,19.90
2024-02-18T21:40:07.222Z,17.77
2024-02-18T21:42:35.472Z,18.83
2024-02-18T21:45:02.346Z,17.10
2024-02-18T21:47:28.950Z,19.37
2024-02-18T21:49:57.789Z,21.10
2024-02-18T21:52:24.549Z,19.80
2024-02-18T21:54:51.669Z,15.37
2024-02-18T21:57:18.825Z,19.37
2024-02-18T21:59:46.173Z,19.60
2024-02-18T22:02:13.021Z,26.70
2024-02-18T22:04:40.276Z,18.07
2024-02-18T22:07:13.825Z,18.07
2024-02-18T22:09:44.893Z,22.90
2024-02-18T22:12:11.637Z,21.40
2024-02-18T22:14:38.116Z,21.00
2024-02-18T22:17:04.710Z,17.97
2024-02-18T22:19:31.384Z,22.43
2024-02-18T22:21:58.000Z,18.17
2024-02-18T22:24:25.456Z,22.10
2024-02-18T22:26:52.183Z,21.00
2024-02-18T22:29:18.717Z,21.27
2024-02-18T22:31:45.392Z,18.50
2024-02-18T22:34:12.542Z,17.77
2024-02-18T22:36:40.291Z,16.33
2024-02-18T22:39:07.348Z,15.50
2024-02-18T22:41:34.487Z,13.80
2024-02-18T22:44:02.096Z,13.10
2024-02-18T22:46:28.667Z,13.53
2024-02-18T22:48:55.340Z,10.53
2024-02-18T22:51:22.514Z,10.40
2024-02-18T22:53:49.057Z,11.27
2024-02-18T22:56:15.560Z,9.80
2024-02-18T22:58:42.354Z,8.00
2024-02-18T23:01:09.688Z,12.27
2024-02-18T23:03:36.489Z,7.70
2024-02-18T23:06:03.241Z,10.53
2024-02-18T23:08:29.805Z,8.40
2024-02-18T23:10:56.563Z,7.20
2024-02-18T23:13:23.625Z,5.50
2024-02-18T23:15:50.361Z,10.97
2024-02-18T23:18:17.130Z,7.57
2024-02-18T23:20:44.153Z,9.33
2024-02-18T23:23:10.879Z,10.80
2024-02-18T23:25:37.464Z,5.70
2024-02-18T23:28:05.016Z,8.27
2024-02-18T23:30:31.660Z,8.10
2024-02-18T23:32:59.091Z,6.07
2024-02-18T23:35:25.750Z,7.30
2024-02-18T23:37:52.280Z,6.50
2024-02-18T23:40:19.212Z,7.00
2024-02-18T23:42:45.974Z,6.73
2024-02-18T23:45:12.558Z,8.20
2024-02-18T23:47:39.279Z,3.77
2024-02-18T23:50:06.419Z,4.77
2024-02-18T23:52:32.897Z,8.63
2024-02-18T23:55:00.042Z,10.20
2024-02-18T23:57:27.726Z,5.50
2024-02-18T23:59:54.324Z,4.83
